Lac Seul, Canada
Current Conditions -  °F | °C
As of 2:00 PM on Friday 28 Nov 2014 (Local Time) from CYXL Reporting Station
Broken Clouds Broken Clouds  
Wind Chill:   Ceiling: 21000
Heat Index:   Visibility: 15mi
Dew Point: -4°   Wind: 3mph
Humidity: 57%   Direction: 80°E
Pressure: 29.96"   Gusts: NA
Location:  50.32°N, 92.28°W
Report Text: CYXL 282000Z 08003KT 050V200 15SM FEW180 BKN210 M13/M20 A2996 RMK AC2CI4 SLP185
Loading
Personal Weather Stations






























Interactive Weather Map New forecast layout! Learn more

10-Day Weather Forecast

Advertisements
Track Severe Weather on mobile